createdAt,value
2023-02-08T00:00:04.462Z,103833.94
2023-02-08T00:05:09.033Z,103827.63
2023-02-08T00:10:11.373Z,103829.88
2023-02-08T00:15:13.966Z,103819.97
2023-02-08T00:20:15.766Z,103824.66
2023-02-08T00:25:17.536Z,103819.97
2023-02-08T00:30:19.219Z,103818.25
2023-02-08T00:35:22.878Z,103812.22
2023-02-08T00:45:44.623Z,103827.25
2023-02-08T00:51:07.846Z,103828.97
2023-02-08T00:56:14.084Z,103826.47
2023-02-08T01:01:15.977Z,103825.91
2023-02-08T01:06:18.309Z,103824.13
2023-02-08T01:11:25.042Z,103819.84
2023-02-08T01:16:30.148Z,103823.41
2023-02-08T01:21:34.593Z,103818.03
2023-02-08T01:26:36.651Z,103831.16
2023-02-08T01:31:42.262Z,103818.47
2023-02-08T01:36:44.221Z,103808.47
2023-02-08T01:41:46.758Z,103812.00
2023-02-08T01:46:51.290Z,103816.25
2023-02-08T01:52:00.371Z,103803.44
2023-02-08T01:57:02.617Z,103803.41
2023-02-08T02:02:07.922Z,103786.06
2023-02-08T02:07:10.057Z,103786.03
2023-02-08T02:12:13.525Z,103781.53
2023-02-08T02:17:18.586Z,103775.22
2023-02-08T02:28:30.043Z,103783.75
2023-02-08T02:33:42.388Z,103795.50
2023-02-08T02:39:21.091Z,103789.91
2023-02-08T02:44:31.846Z,103784.41
2023-02-08T02:50:04.131Z,103775.66
2023-02-08T02:55:13.431Z,103765.56
2023-02-08T03:00:21.809Z,103776.44
2023-02-08T03:05:23.541Z,103768.59
2023-02-08T03:10:34.042Z,103776.19
2023-02-08T03:16:10.343Z,103766.22
2023-02-08T03:21:33.627Z,103763.44
2023-02-08T03:26:59.428Z,103763.50
2023-02-08T03:32:08.235Z,103765.31
2023-02-08T03:37:24.002Z,103764.25
2023-02-08T03:42:28.204Z,103765.31
2023-02-08T03:47:35.364Z,103771.75
2023-02-08T03:52:37.761Z,103764.44
2023-02-08T03:57:56.247Z,103762.81
2023-02-08T04:03:05.539Z,103766.53
2023-02-08T04:08:07.276Z,103760.97
2023-02-08T04:13:08.938Z,103748.38
2023-02-08T04:18:10.601Z,103745.72
2023-02-08T04:23:12.327Z,103741.75
2023-02-08T04:28:14.032Z,103728.06
2023-02-08T04:33:15.847Z,103727.38
2023-02-08T04:38:17.530Z,103723.81
2023-02-08T04:43:19.189Z,103738.31
2023-02-08T04:48:21.005Z,103732.66
2023-02-08T04:53:23.488Z,103749.44
2023-02-08T04:58:25.086Z,103742.78
2023-02-08T05:03:26.668Z,103736.00
2023-02-08T05:08:28.451Z,103741.63
2023-02-08T05:13:30.145Z,103735.28
2023-02-08T05:18:31.738Z,103728.75
2023-02-08T05:23:33.446Z,103728.75
2023-02-08T05:28:35.634Z,103723.25
2023-02-08T05:33:37.306Z,103719.00
2023-02-08T05:38:38.924Z,103723.41
2023-02-08T05:43:41.749Z,103711.69
2023-02-08T05:48:43.443Z,103710.69
2023-02-08T05:53:45.456Z,103707.59
2023-02-08T05:58:47.363Z,103715.66
2023-02-08T06:03:49.088Z,103714.81
2023-02-08T06:08:50.807Z,103711.94
2023-02-08T06:13:52.504Z,103711.06
2023-02-08T06:18:54.113Z,103715.91
2023-02-08T06:23:55.811Z,103715.44
2023-02-08T06:28:59.575Z,103703.00
2023-02-08T06:34:01.200Z,103712.56
2023-02-08T06:39:02.842Z,103719.56
2023-02-08T06:49:23.630Z,103710.69
2023-02-08T06:54:25.199Z,103705.00
2023-02-08T06:59:26.768Z,103692.47
2023-02-08T07:04:28.388Z,103697.59
2023-02-08T07:09:30.132Z,103702.31
2023-02-08T07:14:33.838Z,103700.44
2023-02-08T07:19:35.829Z,103706.72
2023-02-08T07:24:39.689Z,103701.56
2023-02-08T07:29:41.447Z,103708.97
2023-02-08T07:34:43.134Z,103705.56
2023-02-08T07:39:45.026Z,103712.78
2023-02-08T07:44:46.600Z,103699.53
2023-02-08T07:49:48.223Z,103696.19
2023-02-08T07:54:49.921Z,103690.75
2023-02-08T07:59:54.221Z,103691.59
2023-02-08T08:04:55.972Z,103688.03
2023-02-08T08:09:57.556Z,103688.41
2023-02-08T08:14:59.210Z,103689.81
2023-02-08T08:20:00.822Z,103697.38
2023-02-08T08:25:02.422Z,103685.41
2023-02-08T08:30:06.760Z,103681.16
2023-02-08T08:35:09.121Z,103670.66
2023-02-08T08:40:11.338Z,103667.19
2023-02-08T08:45:14.237Z,103658.34
2023-02-08T08:50:15.972Z,103666.50
2023-02-08T08:55:17.702Z,103674.06
2023-02-08T09:00:19.682Z,103688.78
2023-02-08T09:05:21.361Z,103689.19
2023-02-08T09:10:22.965Z,103684.97
2023-02-08T09:20:45.016Z,103695.28
2023-02-08T09:25:48.072Z,103689.00
2023-02-08T09:30:51.020Z,103687.97
2023-02-08T09:35:52.603Z,103694.06
2023-02-08T09:41:02.908Z,103687.06
2023-02-08T09:46:26.358Z,103692.81
2023-02-08T09:51:37.381Z,103697.44
2023-02-08T09:56:43.390Z,103704.22
2023-02-08T10:01:46.508Z,103714.84
2023-02-08T10:06:50.100Z,103715.19
2023-02-08T10:12:13.480Z,103717.41
2023-02-08T10:17:50.371Z,103713.63
2023-02-08T10:22:57.899Z,103709.69
2023-02-08T10:28:27.054Z,103704.66
2023-02-08T10:33:41.498Z,103702.22
2023-02-08T10:38:46.709Z,103700.63
2023-02-08T10:44:00.204Z,103684.06
2023-02-08T10:49:25.378Z,103686.50
2023-02-08T10:54:27.404Z,103670.97
2023-02-08T10:59:51.352Z,103657.63
2023-02-08T11:05:12.529Z,103646.47
2023-02-08T11:15:52.552Z,103627.50
2023-02-08T11:21:02.533Z,103634.09
2023-02-08T11:26:39.827Z,103627.81
2023-02-08T11:32:00.094Z,103618.78
2023-02-08T11:37:13.690Z,103611.38
2023-02-08T11:42:25.725Z,103599.38
2023-02-08T11:47:34.610Z,103608.38
2023-02-08T11:52:42.250Z,103611.91
2023-02-08T11:58:20.362Z,103607.16
2023-02-08T12:03:31.210Z,103593.44
2023-02-08T12:08:35.832Z,103580.22
2023-02-08T12:13:44.797Z,103571.38
2023-02-08T12:18:56.508Z,103571.00
2023-02-08T12:24:19.840Z,103572.13
2023-02-08T12:29:48.458Z,103562.66
2023-02-08T12:35:39.058Z,103563.53
2023-02-08T12:41:10.348Z,103543.50
2023-02-08T12:46:21.270Z,103552.69
2023-02-08T12:51:37.717Z,103548.16
2023-02-08T12:56:53.630Z,103547.44
2023-02-08T13:02:12.057Z,103529.16
2023-02-08T13:07:19.657Z,103519.97
2023-02-08T13:12:25.873Z,103508.25
2023-02-08T13:17:34.932Z,103513.88
2023-02-08T13:22:40.749Z,103515.47
2023-02-08T13:27:42.659Z,103506.22
2023-02-08T13:32:46.584Z,103489.16
2023-02-08T13:38:17.378Z,103482.69
2023-02-08T13:43:35.981Z,103468.72
2023-02-08T13:48:45.959Z,103453.19
2023-02-08T13:53:47.541Z,103448.88
2023-02-08T13:58:49.210Z,103437.53
2023-02-08T14:04:12.187Z,103431.09
2023-02-08T14:09:28.962Z,103434.97
2023-02-08T14:14:39.703Z,103431.09
2023-02-08T14:19:44.465Z,103425.47
2023-02-08T14:24:49.780Z,103423.63
2023-02-08T14:30:07.773Z,103414.34
2023-02-08T14:35:15.417Z,103410.59
2023-02-08T14:40:17.029Z,103401.94
2023-02-08T14:45:33.333Z,103400.00
2023-02-08T14:50:40.212Z,103380.97
2023-02-08T14:55:49.029Z,103371.91
2023-02-08T15:00:54.370Z,103368.09
2023-02-08T15:06:18.963Z,103354.78
2023-02-08T15:11:32.322Z,103348.53
2023-02-08T15:16:40.131Z,103350.13
2023-02-08T15:21:41.840Z,103338.47
2023-02-08T15:26:49.865Z,103331.00
2023-02-08T15:31:52.904Z,103323.88
2023-02-08T15:36:56.693Z,103322.00
2023-02-08T15:41:59.527Z,103316.19
2023-02-08T15:47:04.870Z,103307.81
2023-02-08T15:52:08.306Z,103310.31
2023-02-08T15:57:31.588Z,103319.56
2023-02-08T16:02:35.056Z,103314.91
2023-02-08T16:07:39.409Z,103306.44
2023-02-08T16:12:41.080Z,103309.06
2023-02-08T16:17:46.551Z,103312.50
2023-02-08T16:23:23.565Z,103298.84
2023-02-08T16:28:27.408Z,103300.44
2023-02-08T16:33:30.575Z,103288.00
2023-02-08T16:38:34.556Z,103288.34
2023-02-08T16:43:37.725Z,103271.91
2023-02-08T16:48:42.251Z,103277.88
2023-02-08T16:53:46.983Z,103274.09
2023-02-08T16:58:48.773Z,103264.38
2023-02-08T17:03:52.152Z,103257.25
2023-02-08T17:08:53.849Z,103253.28
2023-02-08T17:13:55.690Z,103250.41
2023-02-08T17:18:58.675Z,103250.06
2023-02-08T17:24:01.489Z,103239.66
2023-02-08T17:29:03.470Z,103233.69
2023-02-08T17:34:05.133Z,103233.56
2023-02-08T17:39:06.748Z,103233.81
2023-02-08T17:44:08.444Z,103229.06
2023-02-08T17:49:10.172Z,103224.03
2023-02-08T17:54:12.276Z,103231.03
2023-02-08T17:59:14.010Z,103228.72
2023-02-08T18:04:15.726Z,103233.28
2023-02-08T18:09:17.515Z,103229.84
2023-02-08T18:14:19.421Z,103227.41
2023-02-08T18:19:21.069Z,103226.69
2023-02-08T18:24:22.739Z,103236.00
2023-02-08T18:29:25.705Z,103224.13
2023-02-08T18:34:27.469Z,103212.59
2023-02-08T18:39:29.217Z,103220.16
2023-02-08T18:44:31.055Z,103219.25
2023-02-08T18:49:32.934Z,103203.50
2023-02-08T18:54:34.726Z,103209.59
2023-02-08T18:59:37.560Z,103218.66
2023-02-08T19:04:39.284Z,103206.16
2023-02-08T19:09:41.329Z,103206.75
2023-02-08T19:14:43.626Z,103206.56
2023-02-08T19:19:46.105Z,103212.34
2023-02-08T19:24:47.719Z,103199.38
2023-02-08T19:29:51.657Z,103197.72
2023-02-08T19:34:53.307Z,103197.78
2023-02-08T19:39:55.162Z,103201.50
2023-02-08T19:44:56.832Z,103197.25
2023-02-08T19:49:58.573Z,103191.25
2023-02-08T19:55:00.287Z,103182.28
2023-02-08T20:00:04.405Z,103181.22
2023-02-08T20:05:13.841Z,103183.88
2023-02-08T20:10:15.632Z,103190.38
2023-02-08T20:15:17.353Z,103192.22
2023-02-08T20:20:20.017Z,103187.22
2023-02-08T20:25:22.078Z,103180.72
2023-02-08T20:30:25.436Z,103182.25
2023-02-08T20:35:27.072Z,103195.84
2023-02-08T20:40:32.033Z,103200.84
2023-02-08T20:45:33.691Z,103185.63
2023-02-08T20:50:35.411Z,103184.75
2023-02-08T20:55:43.873Z,103185.00
2023-02-08T21:00:46.543Z,103184.66
2023-02-08T21:06:00.756Z,103167.94
2023-02-08T21:11:02.599Z,103178.66
2023-02-08T21:16:18.594Z,103156.44
2023-02-08T21:21:20.811Z,103150.81
2023-02-08T21:26:23.025Z,103139.75
2023-02-08T21:31:25.258Z,103141.38
2023-02-08T21:36:27.290Z,103130.53
2023-02-08T21:41:32.295Z,103125.97
2023-02-08T21:46:52.180Z,103124.22
2023-02-08T21:52:12.282Z,103120.06
2023-02-08T21:57:23.180Z,103106.44
2023-02-08T22:02:28.633Z,103115.44
2023-02-08T22:07:41.161Z,103099.69
2023-02-08T22:12:47.217Z,103093.56
2023-02-08T22:17:53.446Z,103098.50
2023-02-08T22:22:55.588Z,103080.75
2023-02-08T22:27:57.414Z,103077.38
2023-02-08T22:32:59.164Z,103071.69
2023-02-08T22:38:00.851Z,103071.00
2023-02-08T22:43:02.517Z,103063.31
2023-02-08T22:48:06.220Z,103068.84
2023-02-08T22:53:08.585Z,103063.84
2023-02-08T22:58:10.329Z,103066.41
2023-02-08T23:03:12.219Z,103074.34
2023-02-08T23:08:16.394Z,103067.75
2023-02-08T23:13:18.002Z,103061.28
2023-02-08T23:18:19.650Z,103050.50
2023-02-08T23:23:21.765Z,103037.63
2023-02-08T23:28:23.631Z,103034.69
2023-02-08T23:33:25.342Z,103038.31
2023-02-08T23:38:27.045Z,103031.03
2023-02-08T23:43:28.813Z,103027.34
2023-02-08T23:48:30.505Z,103023.91
2023-02-08T23:53:33.085Z,103031.03
2023-02-08T23:58:35.383Z,103023.59
